sensor_id;sensor_type;location;lat;lon;timestamp;P1;durP1;ratioP1;P2;durP2;ratioP2
14139;SDS011;7150;53.514;9.988;2023-12-07T00:01:08;49.40;;;22.80;;
14139;SDS011;7150;53.514;9.988;2023-12-07T00:03:34;45.87;;;21.83;;
14139;SDS011;7150;53.514;9.988;2023-12-07T00:05:59;45.87;;;21.37;;
14139;SDS011;7150;53.514;9.988;2023-12-07T00:08:25;43.57;;;21.50;;
14139;SDS011;7150;53.514;9.988;2023-12-07T00:10:50;46.77;;;22.00;;
14139;SDS011;7150;53.514;9.988;2023-12-07T00:13:16;47.43;;;22.60;;
14139;SDS011;7150;53.514;9.988;2023-12-07T00:15:42;43.97;;;21.60;;
14139;SDS011;7150;53.514;9.988;2023-12-07T00:18:07;51.13;;;23.20;;
14139;SDS011;7150;53.514;9.988;2023-12-07T00:20:33;46.60;;;21.23;;
14139;SDS011;7150;53.514;9.988;2023-12-07T00:22:58;51.53;;;22.77;;
14139;SDS011;7150;53.514;9.988;2023-12-07T00:25:24;53.87;;;24.10;;
14139;SDS011;7150;53.514;9.988;2023-12-07T00:27:49;44.40;;;21.47;;
14139;SDS011;7150;53.514;9.988;2023-12-07T00:30:15;51.73;;;22.67;;
14139;SDS011;7150;53.514;9.988;2023-12-07T00:32:41;47.87;;;21.87;;
14139;SDS011;7150;53.514;9.988;2023-12-07T00:35:09;47.10;;;21.07;;
14139;SDS011;7150;53.514;9.988;2023-12-07T00:37:35;51.53;;;22.13;;
14139;SDS011;7150;53.514;9.988;2023-12-07T00:40:01;48.80;;;22.77;;
14139;SDS011;7150;53.514;9.988;2023-12-07T00:42:27;53.33;;;23.50;;
14139;SDS011;7150;53.514;9.988;2023-12-07T00:44:53;42.63;;;20.20;;
14139;SDS011;7150;53.514;9.988;2023-12-07T00:47:19;52.57;;;23.67;;
14139;SDS011;7150;53.514;9.988;2023-12-07T00:49:44;50.40;;;22.07;;
14139;SDS011;7150;53.514;9.988;2023-12-07T00:52:10;51.63;;;22.67;;
14139;SDS011;7150;53.514;9.988;2023-12-07T00:54:35;51.57;;;21.27;;
14139;SDS011;7150;53.514;9.988;2023-12-07T00:57:01;46.27;;;21.30;;
14139;SDS011;7150;53.514;9.988;2023-12-07T00:59:26;45.87;;;21.60;;
14139;SDS011;7150;53.514;9.988;2023-12-07T01:01:52;49.37;;;21.30;;
14139;SDS011;7150;53.514;9.988;2023-12-07T01:04:17;48.83;;;21.73;;
14139;SDS011;7150;53.514;9.988;2023-12-07T01:06:43;50.70;;;21.83;;
14139;SDS011;7150;53.514;9.988;2023-12-07T01:09:08;46.10;;;21.07;;
14139;SDS011;7150;53.514;9.988;2023-12-07T01:11:38;47.33;;;21.63;;
14139;SDS011;7150;53.514;9.988;2023-12-07T01:14:05;49.20;;;22.77;;
14139;SDS011;7150;53.514;9.988;2023-12-07T01:16:30;49.63;;;22.43;;
14139;SDS011;7150;53.514;9.988;2023-12-07T01:18:56;47.63;;;21.33;;
14139;SDS011;7150;53.514;9.988;2023-12-07T01:21:22;45.70;;;22.70;;
14139;SDS011;7150;53.514;9.988;2023-12-07T01:23:48;47.03;;;21.97;;
14139;SDS011;7150;53.514;9.988;2023-12-07T01:26:14;44.83;;;20.83;;
14139;SDS011;7150;53.514;9.988;2023-12-07T01:28:39;41.33;;;20.07;;
14139;SDS011;7150;53.514;9.988;2023-12-07T01:31:05;43.33;;;20.67;;
14139;SDS011;7150;53.514;9.988;2023-12-07T01:33:30;44.57;;;21.87;;
14139;SDS011;7150;53.514;9.988;2023-12-07T01:35:56;47.30;;;22.13;;
14139;SDS011;7150;53.514;9.988;2023-12-07T01:38:22;47.97;;;22.27;;
14139;SDS011;7150;53.514;9.988;2023-12-07T01:40:47;54.67;;;22.87;;
14139;SDS011;7150;53.514;9.988;2023-12-07T01:43:13;48.20;;;21.40;;
14139;SDS011;7150;53.514;9.988;2023-12-07T01:45:39;49.07;;;21.37;;
14139;SDS011;7150;53.514;9.988;2023-12-07T01:48:05;44.00;;;20.87;;
14139;SDS011;7150;53.514;9.988;2023-12-07T01:50:31;49.70;;;23.47;;
14139;SDS011;7150;53.514;9.988;2023-12-07T01:53:01;45.67;;;21.50;;
14139;SDS011;7150;53.514;9.988;2023-12-07T01:55:28;46.63;;;21.33;;
14139;SDS011;7150;53.514;9.988;2023-12-07T01:57:55;44.53;;;21.47;;
14139;SDS011;7150;53.514;9.988;2023-12-07T02:00:21;46.73;;;22.27;;
14139;SDS011;7150;53.514;9.988;2023-12-07T02:02:47;41.83;;;19.83;;
14139;SDS011;7150;53.514;9.988;2023-12-07T02:05:13;46.13;;;21.60;;
14139;SDS011;7150;53.514;9.988;2023-12-07T02:07:40;38.33;;;19.60;;
14139;SDS011;7150;53.514;9.988;2023-12-07T02:10:06;40.30;;;19.43;;
14139;SDS011;7150;53.514;9.988;2023-12-07T02:12:32;45.90;;;21.57;;
14139;SDS011;7150;53.514;9.988;2023-12-07T02:14:59;41.73;;;21.23;;
14139;SDS011;7150;53.514;9.988;2023-12-07T02:17:28;44.13;;;20.33;;
14139;SDS011;7150;53.514;9.988;2023-12-07T02:20:01;41.00;;;20.10;;
14139;SDS011;7150;53.514;9.988;2023-12-07T02:25:23;43.90;;;21.50;;
14139;SDS011;7150;53.514;9.988;2023-12-07T02:27:51;38.37;;;18.77;;
14139;SDS011;7150;53.514;9.988;2023-12-07T02:30:17;42.63;;;19.73;;
14139;SDS011;7150;53.514;9.988;2023-12-07T02:32:43;39.97;;;20.40;;
14139;SDS011;7150;53.514;9.988;2023-12-07T02:35:10;39.10;;;19.17;;
14139;SDS011;7150;53.514;9.988;2023-12-07T02:37:40;42.50;;;20.80;;
14139;SDS011;7150;53.514;9.988;2023-12-07T02:40:10;38.30;;;19.10;;
14139;SDS011;7150;53.514;9.988;2023-12-07T02:42:40;40.20;;;20.67;;
14139;SDS011;7150;53.514;9.988;2023-12-07T02:45:07;40.77;;;19.40;;
14139;SDS011;7150;53.514;9.988;2023-12-07T02:47:34;39.73;;;18.93;;
14139;SDS011;7150;53.514;9.988;2023-12-07T02:50:00;37.93;;;19.50;;
14139;SDS011;7150;53.514;9.988;2023-12-07T02:52:25;43.27;;;20.40;;
14139;SDS011;7150;53.514;9.988;2023-12-07T02:54:51;40.90;;;20.27;;
14139;SDS011;7150;53.514;9.988;2023-12-07T02:57:16;37.80;;;18.90;;
14139;SDS011;7150;53.514;9.988;2023-12-07T02:59:42;40.40;;;20.90;;
14139;SDS011;7150;53.514;9.988;2023-12-07T03:02:07;42.83;;;20.23;;
14139;SDS011;7150;53.514;9.988;2023-12-07T03:04:33;36.27;;;19.13;;
14139;SDS011;7150;53.514;9.988;2023-12-07T03:06:58;37.27;;;18.80;;
14139;SDS011;7150;53.514;9.988;2023-12-07T03:09:24;39.60;;;18.90;;
14139;SDS011;7150;53.514;9.988;2023-12-07T03:11:50;33.97;;;18.37;;
14139;SDS011;7150;53.514;9.988;2023-12-07T03:14:15;39.03;;;18.30;;
14139;SDS011;7150;53.514;9.988;2023-12-07T03:16:41;36.43;;;18.30;;
14139;SDS011;7150;53.514;9.988;2023-12-07T03:19:06;34.03;;;17.50;;
14139;SDS011;7150;53.514;9.988;2023-12-07T03:21:32;37.30;;;18.37;;
14139;SDS011;7150;53.514;9.988;2023-12-07T03:23:57;35.83;;;17.30;;
14139;SDS011;7150;53.514;9.988;2023-12-07T03:26:23;33.57;;;17.37;;
14139;SDS011;7150;53.514;9.988;2023-12-07T03:28:48;32.87;;;17.00;;
14139;SDS011;7150;53.514;9.988;2023-12-07T03:31:14;33.40;;;17.37;;
14139;SDS011;7150;53.514;9.988;2023-12-07T03:33:41;34.23;;;17.77;;
14139;SDS011;7150;53.514;9.988;2023-12-07T03:36:07;37.07;;;19.40;;
14139;SDS011;7150;53.514;9.988;2023-12-07T03:38:36;39.60;;;18.93;;
14139;SDS011;7150;53.514;9.988;2023-12-07T03:41:01;36.47;;;18.60;;
14139;SDS011;7150;53.514;9.988;2023-12-07T03:43:27;34.03;;;17.63;;
14139;SDS011;7150;53.514;9.988;2023-12-07T03:45:52;40.10;;;18.10;;
14139;SDS011;7150;53.514;9.988;2023-12-07T03:48:18;35.33;;;17.93;;
14139;SDS011;7150;53.514;9.988;2023-12-07T03:50:43;34.03;;;16.80;;
14139;SDS011;7150;53.514;9.988;2023-12-07T03:53:09;34.50;;;17.63;;
14139;SDS011;7150;53.514;9.988;2023-12-07T03:55:34;34.40;;;17.43;;
14139;SDS011;7150;53.514;9.988;2023-12-07T03:58:01;29.90;;;16.57;;
14139;SDS011;7150;53.514;9.988;2023-12-07T04:00:27;33.57;;;17.33;;
14139;SDS011;7150;53.514;9.988;2023-12-07T04:02:52;28.87;;;16.63;;
14139;SDS011;7150;53.514;9.988;2023-12-07T04:05:18;30.37;;;15.97;;
14139;SDS011;7150;53.514;9.988;2023-12-07T04:07:43;32.80;;;17.07;;
14139;SDS011;7150;53.514;9.988;2023-12-07T04:10:09;30.67;;;15.47;;
14139;SDS011;7150;53.514;9.988;2023-12-07T04:12:35;31.00;;;16.83;;
14139;SDS011;7150;53.514;9.988;2023-12-07T04:15:00;32.93;;;17.37;;
14139;SDS011;7150;53.514;9.988;2023-12-07T04:17:26;31.83;;;15.30;;
14139;SDS011;7150;53.514;9.988;2023-12-07T04:19:51;32.97;;;16.17;;
14139;SDS011;7150;53.514;9.988;2023-12-07T04:22:17;32.47;;;17.27;;
14139;SDS011;7150;53.514;9.988;2023-12-07T04:24:42;30.83;;;16.40;;
14139;SDS011;7150;53.514;9.988;2023-12-07T04:27:08;30.30;;;15.90;;
14139;SDS011;7150;53.514;9.988;2023-12-07T04:29:33;31.57;;;15.93;;
14139;SDS011;7150;53.514;9.988;2023-12-07T04:31:59;32.80;;;17.27;;
14139;SDS011;7150;53.514;9.988;2023-12-07T04:34:24;32.73;;;15.87;;
14139;SDS011;7150;53.514;9.988;2023-12-07T04:36:50;32.37;;;16.90;;
14139;SDS011;7150;53.514;9.988;2023-12-07T04:39:15;27.23;;;15.07;;
14139;SDS011;7150;53.514;9.988;2023-12-07T04:41:41;28.27;;;16.07;;
14139;SDS011;7150;53.514;9.988;2023-12-07T04:44:06;33.93;;;18.20;;
14139;SDS011;7150;53.514;9.988;2023-12-07T04:46:32;30.40;;;17.07;;
14139;SDS011;7150;53.514;9.988;2023-12-07T04:48:58;35.53;;;18.40;;
14139;SDS011;7150;53.514;9.988;2023-12-07T04:51:23;31.07;;;17.47;;
14139;SDS011;7150;53.514;9.988;2023-12-07T04:53:49;32.70;;;17.10;;
14139;SDS011;7150;53.514;9.988;2023-12-07T04:56:14;34.73;;;17.73;;
14139;SDS011;7150;53.514;9.988;2023-12-07T04:58:40;31.20;;;16.57;;
14139;SDS011;7150;53.514;9.988;2023-12-07T05:01:05;28.87;;;16.83;;
14139;SDS011;7150;53.514;9.988;2023-12-07T05:03:31;29.40;;;16.13;;
14139;SDS011;7150;53.514;9.988;2023-12-07T05:05:56;32.07;;;17.50;;
14139;SDS011;7150;53.514;9.988;2023-12-07T05:08:22;31.60;;;17.33;;
14139;SDS011;7150;53.514;9.988;2023-12-07T05:10:47;32.10;;;17.83;;
14139;SDS011;7150;53.514;9.988;2023-12-07T05:13:13;32.17;;;18.47;;
14139;SDS011;7150;53.514;9.988;2023-12-07T05:15:39;32.57;;;18.43;;
14139;SDS011;7150;53.514;9.988;2023-12-07T05:18:04;33.67;;;18.90;;
14139;SDS011;7150;53.514;9.988;2023-12-07T05:20:30;30.20;;;17.53;;
14139;SDS011;7150;53.514;9.988;2023-12-07T05:22:56;29.23;;;18.00;;
14139;SDS011;7150;53.514;9.988;2023-12-07T05:25:21;31.50;;;18.77;;
14139;SDS011;7150;53.514;9.988;2023-12-07T05:27:47;29.27;;;18.43;;
14139;SDS011;7150;53.514;9.988;2023-12-07T05:30:12;30.37;;;17.67;;
14139;SDS011;7150;53.514;9.988;2023-12-07T05:32:39;33.00;;;19.77;;
14139;SDS011;7150;53.514;9.988;2023-12-07T05:35:04;31.33;;;18.77;;
14139;SDS011;7150;53.514;9.988;2023-12-07T05:37:30;31.67;;;18.03;;
14139;SDS011;7150;53.514;9.988;2023-12-07T05:39:56;28.13;;;17.23;;
14139;SDS011;7150;53.514;9.988;2023-12-07T05:42:22;30.20;;;17.40;;
14139;SDS011;7150;53.514;9.988;2023-12-07T05:44:47;31.20;;;17.43;;
14139;SDS011;7150;53.514;9.988;2023-12-07T05:47:13;26.57;;;16.60;;
14139;SDS011;7150;53.514;9.988;2023-12-07T05:49:38;29.73;;;17.83;;
14139;SDS011;7150;53.514;9.988;2023-12-07T05:52:04;28.83;;;16.70;;
14139;SDS011;7150;53.514;9.988;2023-12-07T05:54:29;28.90;;;17.07;;
14139;SDS011;7150;53.514;9.988;2023-12-07T05:56:55;28.87;;;16.50;;
14139;SDS011;7150;53.514;9.988;2023-12-07T05:59:20;27.67;;;17.00;;
14139;SDS011;7150;53.514;9.988;2023-12-07T06:01:46;31.37;;;16.97;;
14139;SDS011;7150;53.514;9.988;2023-12-07T06:04:11;30.33;;;17.50;;
14139;SDS011;7150;53.514;9.988;2023-12-07T06:06:37;27.10;;;17.07;;
14139;SDS011;7150;53.514;9.988;2023-12-07T06:09:03;30.67;;;17.57;;
14139;SDS011;7150;53.514;9.988;2023-12-07T06:11:30;29.27;;;17.47;;
14139;SDS011;7150;53.514;9.988;2023-12-07T06:13:56;28.20;;;17.23;;
14139;SDS011;7150;53.514;9.988;2023-12-07T06:16:24;29.13;;;17.73;;
14139;SDS011;7150;53.514;9.988;2023-12-07T06:18:49;27.37;;;16.90;;
14139;SDS011;7150;53.514;9.988;2023-12-07T06:21:15;29.67;;;17.43;;
14139;SDS011;7150;53.514;9.988;2023-12-07T06:23:40;28.50;;;16.63;;
14139;SDS011;7150;53.514;9.988;2023-12-07T06:26:06;30.20;;;18.03;;
14139;SDS011;7150;53.514;9.988;2023-12-07T06:28:32;27.80;;;15.53;;
14139;SDS011;7150;53.514;9.988;2023-12-07T06:31:04;30.20;;;17.03;;
14139;SDS011;7150;53.514;9.988;2023-12-07T06:33:31;26.77;;;15.40;;
14139;SDS011;7150;53.514;9.988;2023-12-07T06:35:56;23.70;;;15.40;;
14139;SDS011;7150;53.514;9.988;2023-12-07T06:38:22;24.90;;;16.50;;
14139;SDS011;7150;53.514;9.988;2023-12-07T06:40:47;25.87;;;16.33;;
14139;SDS011;7150;53.514;9.988;2023-12-07T06:43:13;28.07;;;17.53;;
14139;SDS011;7150;53.514;9.988;2023-12-07T06:45:39;28.53;;;16.63;;
14139;SDS011;7150;53.514;9.988;2023-12-07T06:48:05;26.43;;;16.30;;
14139;SDS011;7150;53.514;9.988;2023-12-07T06:50:30;26.10;;;16.10;;
14139;SDS011;7150;53.514;9.988;2023-12-07T06:52:56;26.70;;;17.27;;
14139;SDS011;7150;53.514;9.988;2023-12-07T06:55:22;31.43;;;18.00;;
14139;SDS011;7150;53.514;9.988;2023-12-07T06:57:47;29.90;;;17.13;;
14139;SDS011;7150;53.514;9.988;2023-12-07T07:00:13;27.90;;;16.93;;
14139;SDS011;7150;53.514;9.988;2023-12-07T07:02:39;27.60;;;17.67;;
14139;SDS011;7150;53.514;9.988;2023-12-07T07:05:05;28.30;;;17.40;;
14139;SDS011;7150;53.514;9.988;2023-12-07T07:07:31;29.73;;;18.40;;
14139;SDS011;7150;53.514;9.988;2023-12-07T07:09:57;26.50;;;16.43;;
14139;SDS011;7150;53.514;9.988;2023-12-07T07:12:22;25.90;;;15.90;;
14139;SDS011;7150;53.514;9.988;2023-12-07T07:14:48;28.57;;;17.00;;
14139;SDS011;7150;53.514;9.988;2023-12-07T07:17:13;28.10;;;17.37;;
14139;SDS011;7150;53.514;9.988;2023-12-07T07:19:40;28.53;;;17.47;;
14139;SDS011;7150;53.514;9.988;2023-12-07T07:22:06;27.27;;;16.63;;
14139;SDS011;7150;53.514;9.988;2023-12-07T07:24:31;25.00;;;15.23;;
14139;SDS011;7150;53.514;9.988;2023-12-07T07:26:57;27.40;;;16.13;;
14139;SDS011;7150;53.514;9.988;2023-12-07T07:29:22;27.60;;;16.40;;
14139;SDS011;7150;53.514;9.988;2023-12-07T07:31:48;27.33;;;16.80;;
14139;SDS011;7150;53.514;9.988;2023-12-07T07:34:13;25.60;;;17.00;;
14139;SDS011;7150;53.514;9.988;2023-12-07T07:36:39;27.40;;;16.77;;
14139;SDS011;7150;53.514;9.988;2023-12-07T07:39:04;25.30;;;16.13;;
14139;SDS011;7150;53.514;9.988;2023-12-07T07:41:32;26.30;;;15.03;;
14139;SDS011;7150;53.514;9.988;2023-12-07T07:43:58;23.80;;;15.63;;
14139;SDS011;7150;53.514;9.988;2023-12-07T07:46:24;24.77;;;16.13;;
14139;SDS011;7150;53.514;9.988;2023-12-07T07:48:50;26.37;;;16.27;;
14139;SDS011;7150;53.514;9.988;2023-12-07T07:51:15;22.10;;;14.70;;
14139;SDS011;7150;53.514;9.988;2023-12-07T07:53:41;26.37;;;16.33;;
14139;SDS011;7150;53.514;9.988;2023-12-07T07:56:06;28.23;;;17.27;;
14139;SDS011;7150;53.514;9.988;2023-12-07T07:58:33;21.00;;;14.23;;
14139;SDS011;7150;53.514;9.988;2023-12-07T08:00:59;25.60;;;16.10;;
14139;SDS011;7150;53.514;9.988;2023-12-07T08:03:25;25.47;;;15.90;;
14139;SDS011;7150;53.514;9.988;2023-12-07T08:05:50;26.50;;;16.87;;
14139;SDS011;7150;53.514;9.988;2023-12-07T08:08:16;27.43;;;17.43;;
14139;SDS011;7150;53.514;9.988;2023-12-07T08:10:41;31.23;;;19.17;;
14139;SDS011;7150;53.514;9.988;2023-12-07T08:13:07;31.27;;;19.80;;
14139;SDS011;7150;53.514;9.988;2023-12-07T08:15:33;35.77;;;19.77;;
14139;SDS011;7150;53.514;9.988;2023-12-07T08:17:59;31.83;;;19.17;;
14139;SDS011;7150;53.514;9.988;2023-12-07T08:20:24;31.43;;;19.07;;
14139;SDS011;7150;53.514;9.988;2023-12-07T08:22:51;31.47;;;18.50;;
14139;SDS011;7150;53.514;9.988;2023-12-07T08:25:17;28.60;;;18.43;;
14139;SDS011;7150;53.514;9.988;2023-12-07T08:27:42;35.47;;;19.73;;
14139;SDS011;7150;53.514;9.988;2023-12-07T08:30:12;27.50;;;17.03;;
14139;SDS011;7150;53.514;9.988;2023-12-07T08:32:38;26.73;;;17.47;;
14139;SDS011;7150;53.514;9.988;2023-12-07T08:35:04;32.70;;;19.17;;
14139;SDS011;7150;53.514;9.988;2023-12-07T08:37:31;34.87;;;20.47;;
14139;SDS011;7150;53.514;9.988;2023-12-07T08:39:57;30.87;;;19.00;;
14139;SDS011;7150;53.514;9.988;2023-12-07T08:42:23;27.87;;;18.00;;
14139;SDS011;7150;53.514;9.988;2023-12-07T08:44:48;27.70;;;17.13;;
14139;SDS011;7150;53.514;9.988;2023-12-07T08:47:14;28.30;;;18.03;;
14139;SDS011;7150;53.514;9.988;2023-12-07T08:49:39;31.27;;;18.47;;
14139;SDS011;7150;53.514;9.988;2023-12-07T08:52:05;27.40;;;17.57;;
14139;SDS011;7150;53.514;9.988;2023-12-07T08:54:31;31.77;;;18.63;;
14139;SDS011;7150;53.514;9.988;2023-12-07T08:56:56;28.13;;;16.73;;
14139;SDS011;7150;53.514;9.988;2023-12-07T08:59:22;25.00;;;15.87;;
14139;SDS011;7150;53.514;9.988;2023-12-07T09:01:47;27.77;;;16.30;;
14139;SDS011;7150;53.514;9.988;2023-12-07T09:04:13;27.07;;;16.50;;
14139;SDS011;7150;53.514;9.988;2023-12-07T09:06:38;33.10;;;18.43;;
14139;SDS011;7150;53.514;9.988;2023-12-07T09:09:04;30.17;;;17.93;;
14139;SDS011;7150;53.514;9.988;2023-12-07T09:11:30;27.13;;;16.37;;
14139;SDS011;7150;53.514;9.988;2023-12-07T09:13:55;31.37;;;17.70;;
14139;SDS011;7150;53.514;9.988;2023-12-07T09:16:21;29.40;;;17.10;;
14139;SDS011;7150;53.514;9.988;2023-12-07T09:18:47;28.67;;;16.60;;
14139;SDS011;7150;53.514;9.988;2023-12-07T09:21:13;31.00;;;19.60;;
14139;SDS011;7150;53.514;9.988;2023-12-07T09:23:38;33.03;;;19.93;;
14139;SDS011;7150;53.514;9.988;2023-12-07T09:26:04;33.23;;;20.03;;
14139;SDS011;7150;53.514;9.988;2023-12-07T09:28:29;31.80;;;18.23;;
14139;SDS011;7150;53.514;9.988;2023-12-07T09:30:56;30.27;;;17.67;;
14139;SDS011;7150;53.514;9.988;2023-12-07T09:33:21;33.37;;;19.27;;
14139;SDS011;7150;53.514;9.988;2023-12-07T09:35:47;30.00;;;17.70;;
14139;SDS011;7150;53.514;9.988;2023-12-07T09:38:14;30.67;;;17.73;;
14139;SDS011;7150;53.514;9.988;2023-12-07T09:40:39;30.27;;;17.33;;
14139;SDS011;7150;53.514;9.988;2023-12-07T09:43:05;29.50;;;16.70;;
14139;SDS011;7150;53.514;9.988;2023-12-07T09:45:30;30.00;;;17.23;;
14139;SDS011;7150;53.514;9.988;2023-12-07T09:47:56;33.00;;;19.30;;
14139;SDS011;7150;53.514;9.988;2023-12-07T09:50:24;31.17;;;18.60;;
14139;SDS011;7150;53.514;9.988;2023-12-07T09:52:51;33.07;;;19.27;;
14139;SDS011;7150;53.514;9.988;2023-12-07T09:55:18;29.50;;;16.93;;
14139;SDS011;7150;53.514;9.988;2023-12-07T09:57:45;31.33;;;18.03;;
14139;SDS011;7150;53.514;9.988;2023-12-07T10:00:11;28.53;;;17.03;;
14139;SDS011;7150;53.514;9.988;2023-12-07T10:02:39;28.87;;;17.03;;
14139;SDS011;7150;53.514;9.988;2023-12-07T10:05:06;32.53;;;18.43;;
14139;SDS011;7150;53.514;9.988;2023-12-07T10:07:35;33.00;;;18.43;;
14139;SDS011;7150;53.514;9.988;2023-12-07T10:10:02;29.97;;;18.00;;
14139;SDS011;7150;53.514;9.988;2023-12-07T10:12:29;29.23;;;17.20;;
14139;SDS011;7150;53.514;9.988;2023-12-07T10:14:55;30.30;;;16.87;;
14139;SDS011;7150;53.514;9.988;2023-12-07T10:17:21;33.17;;;18.20;;
14139;SDS011;7150;53.514;9.988;2023-12-07T10:19:53;31.57;;;18.60;;
14139;SDS011;7150;53.514;9.988;2023-12-07T10:22:33;28.63;;;16.70;;
14139;SDS011;7150;53.514;9.988;2023-12-07T10:24:59;29.00;;;16.77;;
14139;SDS011;7150;53.514;9.988;2023-12-07T10:27:25;32.37;;;17.93;;
14139;SDS011;7150;53.514;9.988;2023-12-07T10:29:53;30.77;;;18.30;;
14139;SDS011;7150;53.514;9.988;2023-12-07T10:32:18;29.60;;;17.30;;
14139;SDS011;7150;53.514;9.988;2023-12-07T10:34:46;28.50;;;16.97;;
14139;SDS011;7150;53.514;9.988;2023-12-07T10:37:11;26.60;;;15.67;;
14139;SDS011;7150;53.514;9.988;2023-12-07T10:39:37;26.23;;;15.47;;
14139;SDS011;7150;53.514;9.988;2023-12-07T10:42:02;28.80;;;15.60;;
14139;SDS011;7150;53.514;9.988;2023-12-07T10:44:34;29.30;;;17.23;;
14139;SDS011;7150;53.514;9.988;2023-12-07T10:47:04;31.43;;;18.83;;
14139;SDS011;7150;53.514;9.988;2023-12-07T10:49:30;28.50;;;17.00;;
14139;SDS011;7150;53.514;9.988;2023-12-07T10:51:58;27.13;;;15.97;;
14139;SDS011;7150;53.514;9.988;2023-12-07T10:54:27;30.93;;;16.03;;
14139;SDS011;7150;53.514;9.988;2023-12-07T10:56:59;26.00;;;15.63;;
14139;SDS011;7150;53.514;9.988;2023-12-07T10:59:29;24.77;;;14.23;;
14139;SDS011;7150;53.514;9.988;2023-12-07T11:01:57;26.63;;;16.50;;
14139;SDS011;7150;53.514;9.988;2023-12-07T11:04:23;27.83;;;15.60;;
14139;SDS011;7150;53.514;9.988;2023-12-07T11:06:50;26.83;;;16.03;;
14139;SDS011;7150;53.514;9.988;2023-12-07T11:09:19;30.40;;;17.30;;
14139;SDS011;7150;53.514;9.988;2023-12-07T11:11:55;29.27;;;15.63;;
14139;SDS011;7150;53.514;9.988;2023-12-07T11:14:26;26.50;;;15.57;;
14139;SDS011;7150;53.514;9.988;2023-12-07T11:16:55;22.40;;;14.17;;
14139;SDS011;7150;53.514;9.988;2023-12-07T11:22:05;27.10;;;15.43;;
14139;SDS011;7150;53.514;9.988;2023-12-07T11:24:31;28.43;;;16.10;;
14139;SDS011;7150;53.514;9.988;2023-12-07T11:26:57;26.77;;;16.10;;
14139;SDS011;7150;53.514;9.988;2023-12-07T11:29:24;29.77;;;17.07;;
14139;SDS011;7150;53.514;9.988;2023-12-07T11:31:50;27.40;;;16.90;;
14139;SDS011;7150;53.514;9.988;2023-12-07T11:37:04;32.17;;;17.53;;
14139;SDS011;7150;53.514;9.988;2023-12-07T11:39:37;28.60;;;17.17;;
14139;SDS011;7150;53.514;9.988;2023-12-07T11:44:41;32.23;;;19.47;;
14139;SDS011;7150;53.514;9.988;2023-12-07T11:47:09;30.07;;;18.20;;
14139;SDS011;7150;53.514;9.988;2023-12-07T11:49:41;30.57;;;17.87;;
14139;SDS011;7150;53.514;9.988;2023-12-07T11:52:13;31.20;;;18.30;;
14139;SDS011;7150;53.514;9.988;2023-12-07T11:54:49;30.33;;;17.57;;
14139;SDS011;7150;53.514;9.988;2023-12-07T11:57:15;27.87;;;17.47;;
14139;SDS011;7150;53.514;9.988;2023-12-07T11:59:45;32.03;;;18.67;;
14139;SDS011;7150;53.514;9.988;2023-12-07T12:02:12;31.40;;;19.00;;
14139;SDS011;7150;53.514;9.988;2023-12-07T12:04:41;34.53;;;19.60;;
14139;SDS011;7150;53.514;9.988;2023-12-07T12:07:07;31.03;;;18.47;;
14139;SDS011;7150;53.514;9.988;2023-12-07T12:09:33;28.00;;;17.20;;
14139;SDS011;7150;53.514;9.988;2023-12-07T12:11:59;27.50;;;16.70;;
14139;SDS011;7150;53.514;9.988;2023-12-07T12:14:25;27.27;;;16.90;;
14139;SDS011;7150;53.514;9.988;2023-12-07T12:16:51;30.03;;;18.13;;
14139;SDS011;7150;53.514;9.988;2023-12-07T12:19:17;27.60;;;16.80;;
14139;SDS011;7150;53.514;9.988;2023-12-07T12:21:42;26.20;;;16.30;;
14139;SDS011;7150;53.514;9.988;2023-12-07T12:24:11;31.90;;;17.83;;
14139;SDS011;7150;53.514;9.988;2023-12-07T12:26:38;33.90;;;19.17;;
14139;SDS011;7150;53.514;9.988;2023-12-07T12:29:06;33.00;;;18.53;;
14139;SDS011;7150;53.514;9.988;2023-12-07T12:31:33;32.03;;;18.73;;
14139;SDS011;7150;53.514;9.988;2023-12-07T12:34:02;35.73;;;20.13;;
14139;SDS011;7150;53.514;9.988;2023-12-07T12:36:30;32.50;;;19.47;;
14139;SDS011;7150;53.514;9.988;2023-12-07T12:38:55;32.20;;;18.67;;
14139;SDS011;7150;53.514;9.988;2023-12-07T12:41:21;33.07;;;18.40;;
14139;SDS011;7150;53.514;9.988;2023-12-07T12:43:48;30.50;;;18.57;;
14139;SDS011;7150;53.514;9.988;2023-12-07T12:46:18;31.20;;;17.63;;
14139;SDS011;7150;53.514;9.988;2023-12-07T12:48:56;28.63;;;17.87;;
14139;SDS011;7150;53.514;9.988;2023-12-07T12:51:27;30.33;;;16.80;;
14139;SDS011;7150;53.514;9.988;2023-12-07T12:53:55;29.17;;;17.50;;
14139;SDS011;7150;53.514;9.988;2023-12-07T12:56:21;30.77;;;17.43;;
14139;SDS011;7150;53.514;9.988;2023-12-07T12:58:51;26.00;;;15.17;;
14139;SDS011;7150;53.514;9.988;2023-12-07T13:01:18;23.10;;;15.00;;
14139;SDS011;7150;53.514;9.988;2023-12-07T13:03:45;30.20;;;17.13;;
14139;SDS011;7150;53.514;9.988;2023-12-07T13:06:12;31.90;;;17.60;;
14139;SDS011;7150;53.514;9.988;2023-12-07T13:08:39;24.13;;;15.40;;
14139;SDS011;7150;53.514;9.988;2023-12-07T13:11:05;26.63;;;16.00;;
14139;SDS011;7150;53.514;9.988;2023-12-07T13:13:31;24.47;;;15.40;;
14139;SDS011;7150;53.514;9.988;2023-12-07T13:15:56;26.17;;;16.57;;
14139;SDS011;7150;53.514;9.988;2023-12-07T13:18:22;23.43;;;14.93;;
14139;SDS011;7150;53.514;9.988;2023-12-07T13:20:47;27.73;;;16.80;;
14139;SDS011;7150;53.514;9.988;2023-12-07T13:23:13;27.53;;;16.93;;
14139;SDS011;7150;53.514;9.988;2023-12-07T13:25:38;30.93;;;18.23;;
14139;SDS011;7150;53.514;9.988;2023-12-07T13:28:05;30.87;;;17.50;;
14139;SDS011;7150;53.514;9.988;2023-12-07T13:30:31;29.67;;;16.70;;
14139;SDS011;7150;53.514;9.988;2023-12-07T13:33:00;29.53;;;16.67;;
14139;SDS011;7150;53.514;9.988;2023-12-07T13:35:26;29.97;;;16.63;;
14139;SDS011;7150;53.514;9.988;2023-12-07T13:37:51;30.00;;;16.97;;
14139;SDS011;7150;53.514;9.988;2023-12-07T13:40:17;28.10;;;16.57;;
14139;SDS011;7150;53.514;9.988;2023-12-07T13:42:42;25.57;;;14.37;;
14139;SDS011;7150;53.514;9.988;2023-12-07T13:45:08;28.10;;;17.47;;
14139;SDS011;7150;53.514;9.988;2023-12-07T13:47:34;29.40;;;16.83;;
14139;SDS011;7150;53.514;9.988;2023-12-07T13:50:02;29.50;;;17.87;;
14139;SDS011;7150;53.514;9.988;2023-12-07T13:52:28;28.37;;;16.93;;
14139;SDS011;7150;53.514;9.988;2023-12-07T13:54:55;29.33;;;17.17;;
14139;SDS011;7150;53.514;9.988;2023-12-07T13:57:21;32.40;;;18.63;;
14139;SDS011;7150;53.514;9.988;2023-12-07T13:59:49;30.30;;;17.13;;
14139;SDS011;7150;53.514;9.988;2023-12-07T14:02:18;30.77;;;18.13;;
14139;SDS011;7150;53.514;9.988;2023-12-07T14:04:44;29.03;;;16.97;;
14139;SDS011;7150;53.514;9.988;2023-12-07T14:07:11;29.90;;;17.27;;
14139;SDS011;7150;53.514;9.988;2023-12-07T14:09:42;29.93;;;16.90;;
14139;SDS011;7150;53.514;9.988;2023-12-07T14:12:09;28.43;;;17.03;;
14139;SDS011;7150;53.514;9.988;2023-12-07T14:14:39;30.30;;;17.53;;
14139;SDS011;7150;53.514;9.988;2023-12-07T14:17:04;28.83;;;17.67;;
14139;SDS011;7150;53.514;9.988;2023-12-07T14:19:31;30.87;;;17.40;;
14139;SDS011;7150;53.514;9.988;2023-12-07T14:21:56;32.57;;;18.20;;
14139;SDS011;7150;53.514;9.988;2023-12-07T14:24:23;31.70;;;18.00;;
14139;SDS011;7150;53.514;9.988;2023-12-07T14:26:49;30.10;;;17.17;;
14139;SDS011;7150;53.514;9.988;2023-12-07T14:29:15;30.43;;;17.87;;
14139;SDS011;7150;53.514;9.988;2023-12-07T14:31:43;33.03;;;18.13;;
14139;SDS011;7150;53.514;9.988;2023-12-07T14:34:09;29.27;;;17.60;;
14139;SDS011;7150;53.514;9.988;2023-12-07T14:36:35;26.83;;;16.37;;
14139;SDS011;7150;53.514;9.988;2023-12-07T14:39:03;28.37;;;16.80;;